sensor_id;sensor_type;location;lat;lon;timestamp;P1;durP1;ratioP1;P2;durP2;ratioP2
19739;SDS011;10027;51.066;13.768;2023-07-24T00:01:22;3.07;;;2.23;;
19739;SDS011;10027;51.066;13.768;2023-07-24T00:03:49;3.33;;;2.60;;
19739;SDS011;10027;51.066;13.768;2023-07-24T00:06:17;2.77;;;2.10;;
19739;SDS011;10027;51.066;13.768;2023-07-24T00:08:44;4.50;;;2.50;;
19739;SDS011;10027;51.066;13.768;2023-07-24T00:11:11;2.53;;;2.23;;
19739;SDS011;10027;51.066;13.768;2023-07-24T00:13:38;2.57;;;2.17;;
19739;SDS011;10027;51.066;13.768;2023-07-24T00:16:08;2.80;;;2.23;;
19739;SDS011;10027;51.066;13.768;2023-07-24T00:18:36;4.00;;;2.30;;
19739;SDS011;10027;51.066;13.768;2023-07-24T00:21:03;3.07;;;2.40;;
19739;SDS011;10027;51.066;13.768;2023-07-24T00:23:30;3.87;;;2.60;;
19739;SDS011;10027;51.066;13.768;2023-07-24T00:25:57;3.67;;;2.30;;
19739;SDS011;10027;51.066;13.768;2023-07-24T00:28:24;4.60;;;2.57;;
19739;SDS011;10027;51.066;13.768;2023-07-24T00:30:51;3.30;;;2.60;;
19739;SDS011;10027;51.066;13.768;2023-07-24T00:33:19;3.93;;;2.40;;
19739;SDS011;10027;51.066;13.768;2023-07-24T00:35:46;3.40;;;2.50;;
19739;SDS011;10027;51.066;13.768;2023-07-24T00:38:13;3.13;;;2.13;;
19739;SDS011;10027;51.066;13.768;2023-07-24T00:40:40;4.57;;;2.40;;
19739;SDS011;10027;51.066;13.768;2023-07-24T00:43:07;2.60;;;2.40;;
19739;SDS011;10027;51.066;13.768;2023-07-24T00:45:35;3.10;;;2.20;;
19739;SDS011;10027;51.066;13.768;2023-07-24T00:48:02;3.47;;;2.43;;
19739;SDS011;10027;51.066;13.768;2023-07-24T00:50:29;2.50;;;2.30;;
19739;SDS011;10027;51.066;13.768;2023-07-24T00:52:57;3.40;;;2.30;;
19739;SDS011;10027;51.066;13.768;2023-07-24T00:55:24;2.83;;;2.20;;
19739;SDS011;10027;51.066;13.768;2023-07-24T00:57:52;3.50;;;2.33;;
19739;SDS011;10027;51.066;13.768;2023-07-24T01:00:19;2.83;;;2.30;;
19739;SDS011;10027;51.066;13.768;2023-07-24T01:02:46;3.23;;;2.50;;
19739;SDS011;10027;51.066;13.768;2023-07-24T01:05:14;2.70;;;2.30;;
19739;SDS011;10027;51.066;13.768;2023-07-24T01:07:41;4.17;;;2.63;;
19739;SDS011;10027;51.066;13.768;2023-07-24T01:10:09;3.03;;;2.27;;
19739;SDS011;10027;51.066;13.768;2023-07-24T01:12:39;3.20;;;2.50;;
19739;SDS011;10027;51.066;13.768;2023-07-24T01:17:36;2.80;;;2.40;;
19739;SDS011;10027;51.066;13.768;2023-07-24T01:20:06;3.43;;;2.40;;
19739;SDS011;10027;51.066;13.768;2023-07-24T01:22:46;3.47;;;2.60;;
19739;SDS011;10027;51.066;13.768;2023-07-24T01:25:21;4.00;;;2.20;;
19739;SDS011;10027;51.066;13.768;2023-07-24T01:27:49;3.33;;;2.37;;
19739;SDS011;10027;51.066;13.768;2023-07-24T01:30:18;4.03;;;2.60;;
19739;SDS011;10027;51.066;13.768;2023-07-24T01:32:45;2.77;;;2.40;;
19739;SDS011;10027;51.066;13.768;2023-07-24T01:35:12;3.07;;;2.53;;
19739;SDS011;10027;51.066;13.768;2023-07-24T01:37:40;3.03;;;2.30;;
19739;SDS011;10027;51.066;13.768;2023-07-24T01:40:08;3.37;;;2.40;;
19739;SDS011;10027;51.066;13.768;2023-07-24T01:42:36;3.17;;;2.20;;
19739;SDS011;10027;51.066;13.768;2023-07-24T01:45:04;4.73;;;2.60;;
19739;SDS011;10027;51.066;13.768;2023-07-24T01:47:31;3.50;;;2.53;;
19739;SDS011;10027;51.066;13.768;2023-07-24T01:49:59;3.93;;;2.47;;
19739;SDS011;10027;51.066;13.768;2023-07-24T01:52:26;2.83;;;2.47;;
19739;SDS011;10027;51.066;13.768;2023-07-24T01:54:53;2.83;;;2.50;;
19739;SDS011;10027;51.066;13.768;2023-07-24T01:57:21;4.23;;;2.60;;
19739;SDS011;10027;51.066;13.768;2023-07-24T01:59:48;2.67;;;2.20;;
19739;SDS011;10027;51.066;13.768;2023-07-24T02:02:15;3.60;;;2.50;;
19739;SDS011;10027;51.066;13.768;2023-07-24T02:04:42;4.17;;;2.43;;
19739;SDS011;10027;51.066;13.768;2023-07-24T02:07:10;2.67;;;2.23;;
19739;SDS011;10027;51.066;13.768;2023-07-24T02:09:37;3.27;;;2.53;;
19739;SDS011;10027;51.066;13.768;2023-07-24T02:12:04;2.77;;;2.43;;
19739;SDS011;10027;51.066;13.768;2023-07-24T02:14:32;2.67;;;2.47;;
19739;SDS011;10027;51.066;13.768;2023-07-24T02:16:59;2.77;;;2.43;;
19739;SDS011;10027;51.066;13.768;2023-07-24T02:19:26;3.63;;;2.50;;
19739;SDS011;10027;51.066;13.768;2023-07-24T02:21:54;4.20;;;2.40;;
19739;SDS011;10027;51.066;13.768;2023-07-24T02:24:21;3.13;;;2.37;;
19739;SDS011;10027;51.066;13.768;2023-07-24T02:26:48;3.53;;;2.43;;
19739;SDS011;10027;51.066;13.768;2023-07-24T02:29:15;3.13;;;2.43;;
19739;SDS011;10027;51.066;13.768;2023-07-24T02:31:42;3.27;;;2.60;;
19739;SDS011;10027;51.066;13.768;2023-07-24T02:34:10;4.53;;;2.70;;
19739;SDS011;10027;51.066;13.768;2023-07-24T02:36:37;3.00;;;2.47;;
19739;SDS011;10027;51.066;13.768;2023-07-24T02:39:05;4.10;;;2.30;;
19739;SDS011;10027;51.066;13.768;2023-07-24T02:41:32;3.13;;;2.30;;
19739;SDS011;10027;51.066;13.768;2023-07-24T02:43:59;2.60;;;2.07;;
19739;SDS011;10027;51.066;13.768;2023-07-24T02:46:26;3.10;;;2.20;;
19739;SDS011;10027;51.066;13.768;2023-07-24T02:48:55;3.63;;;2.47;;
19739;SDS011;10027;51.066;13.768;2023-07-24T02:51:22;3.10;;;2.37;;
19739;SDS011;10027;51.066;13.768;2023-07-24T02:53:49;3.70;;;2.40;;
19739;SDS011;10027;51.066;13.768;2023-07-24T02:56:18;3.40;;;2.37;;
19739;SDS011;10027;51.066;13.768;2023-07-24T02:58:47;4.30;;;2.57;;
19739;SDS011;10027;51.066;13.768;2023-07-24T03:01:14;3.13;;;2.57;;
19739;SDS011;10027;51.066;13.768;2023-07-24T03:03:41;2.73;;;2.10;;
19739;SDS011;10027;51.066;13.768;2023-07-24T03:06:09;4.87;;;2.70;;
19739;SDS011;10027;51.066;13.768;2023-07-24T03:08:36;3.37;;;2.47;;
19739;SDS011;10027;51.066;13.768;2023-07-24T03:11:06;3.63;;;2.50;;
19739;SDS011;10027;51.066;13.768;2023-07-24T03:13:34;3.17;;;2.50;;
19739;SDS011;10027;51.066;13.768;2023-07-24T03:16:01;3.77;;;2.60;;
19739;SDS011;10027;51.066;13.768;2023-07-24T03:18:28;2.63;;;2.30;;
19739;SDS011;10027;51.066;13.768;2023-07-24T03:20:57;4.20;;;2.63;;
19739;SDS011;10027;51.066;13.768;2023-07-24T03:23:24;5.87;;;2.90;;
19739;SDS011;10027;51.066;13.768;2023-07-24T03:25:51;3.13;;;2.30;;
19739;SDS011;10027;51.066;13.768;2023-07-24T03:28:22;3.00;;;2.60;;
19739;SDS011;10027;51.066;13.768;2023-07-24T03:30:49;3.47;;;2.40;;
19739;SDS011;10027;51.066;13.768;2023-07-24T03:33:16;3.20;;;2.47;;
19739;SDS011;10027;51.066;13.768;2023-07-24T03:35:43;5.43;;;2.30;;
19739;SDS011;10027;51.066;13.768;2023-07-24T03:38:10;3.10;;;2.60;;
19739;SDS011;10027;51.066;13.768;2023-07-24T03:40:37;3.33;;;2.60;;
19739;SDS011;10027;51.066;13.768;2023-07-24T03:43:04;4.70;;;2.67;;
19739;SDS011;10027;51.066;13.768;2023-07-24T03:45:32;3.70;;;2.67;;
19739;SDS011;10027;51.066;13.768;2023-07-24T03:47:59;5.80;;;2.33;;
19739;SDS011;10027;51.066;13.768;2023-07-24T03:50:26;4.50;;;2.53;;
19739;SDS011;10027;51.066;13.768;2023-07-24T03:52:53;3.90;;;2.43;;
19739;SDS011;10027;51.066;13.768;2023-07-24T03:55:20;2.57;;;2.20;;
19739;SDS011;10027;51.066;13.768;2023-07-24T03:57:48;3.73;;;2.30;;
19739;SDS011;10027;51.066;13.768;2023-07-24T04:00:15;3.03;;;2.63;;
19739;SDS011;10027;51.066;13.768;2023-07-24T04:02:42;4.13;;;2.67;;
19739;SDS011;10027;51.066;13.768;2023-07-24T04:05:09;4.50;;;2.60;;
19739;SDS011;10027;51.066;13.768;2023-07-24T04:07:37;3.30;;;2.37;;
19739;SDS011;10027;51.066;13.768;2023-07-24T04:10:04;4.80;;;2.80;;
19739;SDS011;10027;51.066;13.768;2023-07-24T04:12:32;3.50;;;2.40;;
19739;SDS011;10027;51.066;13.768;2023-07-24T04:14:59;3.10;;;2.57;;
19739;SDS011;10027;51.066;13.768;2023-07-24T04:17:26;4.37;;;2.40;;
19739;SDS011;10027;51.066;13.768;2023-07-24T04:19:53;2.93;;;2.60;;
19739;SDS011;10027;51.066;13.768;2023-07-24T04:22:21;3.57;;;2.40;;
19739;SDS011;10027;51.066;13.768;2023-07-24T04:24:48;3.03;;;2.30;;
19739;SDS011;10027;51.066;13.768;2023-07-24T04:27:15;2.80;;;2.50;;
19739;SDS011;10027;51.066;13.768;2023-07-24T04:29:43;3.93;;;2.50;;
19739;SDS011;10027;51.066;13.768;2023-07-24T04:32:10;3.63;;;2.50;;
19739;SDS011;10027;51.066;13.768;2023-07-24T04:34:37;4.27;;;2.60;;
19739;SDS011;10027;51.066;13.768;2023-07-24T04:37:04;4.27;;;2.70;;
19739;SDS011;10027;51.066;13.768;2023-07-24T04:39:31;3.53;;;2.70;;
19739;SDS011;10027;51.066;13.768;2023-07-24T04:41:59;3.57;;;2.57;;
19739;SDS011;10027;51.066;13.768;2023-07-24T04:44:26;3.63;;;2.50;;
19739;SDS011;10027;51.066;13.768;2023-07-24T04:46:53;4.37;;;2.53;;
19739;SDS011;10027;51.066;13.768;2023-07-24T04:49:22;3.40;;;2.50;;
19739;SDS011;10027;51.066;13.768;2023-07-24T04:51:49;3.70;;;2.77;;
19739;SDS011;10027;51.066;13.768;2023-07-24T04:54:17;3.13;;;2.53;;
19739;SDS011;10027;51.066;13.768;2023-07-24T04:56:44;3.57;;;2.70;;
19739;SDS011;10027;51.066;13.768;2023-07-24T04:59:11;4.13;;;2.90;;
19739;SDS011;10027;51.066;13.768;2023-07-24T05:01:38;3.63;;;2.70;;
19739;SDS011;10027;51.066;13.768;2023-07-24T05:04:05;3.87;;;2.57;;
19739;SDS011;10027;51.066;13.768;2023-07-24T05:06:32;2.80;;;2.50;;
19739;SDS011;10027;51.066;13.768;2023-07-24T05:09:01;3.07;;;2.47;;
19739;SDS011;10027;51.066;13.768;2023-07-24T05:11:28;3.80;;;2.50;;
19739;SDS011;10027;51.066;13.768;2023-07-24T05:13:56;4.00;;;2.77;;
19739;SDS011;10027;51.066;13.768;2023-07-24T05:16:23;3.60;;;2.60;;
19739;SDS011;10027;51.066;13.768;2023-07-24T05:18:50;3.77;;;2.73;;
19739;SDS011;10027;51.066;13.768;2023-07-24T05:21:17;3.20;;;2.70;;
19739;SDS011;10027;51.066;13.768;2023-07-24T05:23:44;4.17;;;2.70;;
19739;SDS011;10027;51.066;13.768;2023-07-24T05:26:12;3.73;;;3.00;;
19739;SDS011;10027;51.066;13.768;2023-07-24T05:28:39;5.07;;;2.90;;
19739;SDS011;10027;51.066;13.768;2023-07-24T05:31:06;2.90;;;2.60;;
19739;SDS011;10027;51.066;13.768;2023-07-24T05:33:34;3.20;;;2.70;;
19739;SDS011;10027;51.066;13.768;2023-07-24T05:36:01;4.90;;;2.97;;
19739;SDS011;10027;51.066;13.768;2023-07-24T05:38:29;3.17;;;2.53;;
19739;SDS011;10027;51.066;13.768;2023-07-24T05:43:23;3.17;;;2.63;;
19739;SDS011;10027;51.066;13.768;2023-07-24T05:45:51;4.17;;;2.80;;
19739;SDS011;10027;51.066;13.768;2023-07-24T05:48:18;9.77;;;2.87;;
19739;SDS011;10027;51.066;13.768;2023-07-24T05:50:45;4.23;;;2.77;;
19739;SDS011;10027;51.066;13.768;2023-07-24T05:53:14;3.97;;;2.90;;
19739;SDS011;10027;51.066;13.768;2023-07-24T05:55:41;4.77;;;2.90;;
19739;SDS011;10027;51.066;13.768;2023-07-24T05:58:09;3.33;;;2.80;;
19739;SDS011;10027;51.066;13.768;2023-07-24T06:00:37;2.93;;;2.53;;
19739;SDS011;10027;51.066;13.768;2023-07-24T06:03:04;3.83;;;2.73;;
19739;SDS011;10027;51.066;13.768;2023-07-24T06:05:34;4.10;;;2.53;;
19739;SDS011;10027;51.066;13.768;2023-07-24T06:08:01;3.27;;;2.93;;
19739;SDS011;10027;51.066;13.768;2023-07-24T06:10:28;3.17;;;2.53;;
19739;SDS011;10027;51.066;13.768;2023-07-24T06:12:55;4.57;;;3.00;;
19739;SDS011;10027;51.066;13.768;2023-07-24T06:15:22;3.73;;;2.70;;
19739;SDS011;10027;51.066;13.768;2023-07-24T06:17:50;3.30;;;2.97;;
19739;SDS011;10027;51.066;13.768;2023-07-24T06:20:20;4.97;;;3.00;;
19739;SDS011;10027;51.066;13.768;2023-07-24T06:22:47;3.13;;;2.70;;
19739;SDS011;10027;51.066;13.768;2023-07-24T06:25:15;4.93;;;3.07;;
19739;SDS011;10027;51.066;13.768;2023-07-24T06:27:42;4.22;;;2.80;;
19739;SDS011;10027;51.066;13.768;2023-07-24T06:30:09;3.35;;;2.80;;
19739;SDS011;10027;51.066;13.768;2023-07-24T06:32:39;4.25;;;2.92;;
19739;SDS011;10027;51.066;13.768;2023-07-24T06:35:07;5.70;;;3.10;;
19739;SDS011;10027;51.066;13.768;2023-07-24T06:37:34;3.13;;;2.83;;
19739;SDS011;10027;51.066;13.768;2023-07-24T06:40:01;2.95;;;2.70;;
19739;SDS011;10027;51.066;13.768;2023-07-24T06:42:28;3.25;;;2.95;;
19739;SDS011;10027;51.066;13.768;2023-07-24T06:44:55;3.35;;;3.05;;
19739;SDS011;10027;51.066;13.768;2023-07-24T06:47:23;4.97;;;2.85;;
19739;SDS011;10027;51.066;13.768;2023-07-24T06:49:50;3.03;;;2.72;;
19739;SDS011;10027;51.066;13.768;2023-07-24T06:52:17;4.70;;;3.05;;
19739;SDS011;10027;51.066;13.768;2023-07-24T06:54:44;3.90;;;2.95;;
19739;SDS011;10027;51.066;13.768;2023-07-24T06:57:11;3.30;;;3.00;;
19739;SDS011;10027;51.066;13.768;2023-07-24T06:59:38;3.45;;;3.15;;
19739;SDS011;10027;51.066;13.768;2023-07-24T07:02:05;3.35;;;2.95;;
19739;SDS011;10027;51.066;13.768;2023-07-24T07:04:33;3.35;;;2.92;;
19739;SDS011;10027;51.066;13.768;2023-07-24T07:07:00;3.58;;;3.28;;
19739;SDS011;10027;51.066;13.768;2023-07-24T07:09:27;3.58;;;2.67;;
19739;SDS011;10027;51.066;13.768;2023-07-24T07:11:54;3.42;;;3.13;;
19739;SDS011;10027;51.066;13.768;2023-07-24T07:14:21;3.60;;;3.30;;
19739;SDS011;10027;51.066;13.768;2023-07-24T07:16:49;4.85;;;3.13;;
19739;SDS011;10027;51.066;13.768;2023-07-24T07:19:16;5.63;;;3.38;;
19739;SDS011;10027;51.066;13.768;2023-07-24T07:21:43;4.95;;;3.10;;
19739;SDS011;10027;51.066;13.768;2023-07-24T07:24:11;4.68;;;3.15;;
19739;SDS011;10027;51.066;13.768;2023-07-24T07:26:38;3.35;;;3.05;;
19739;SDS011;10027;51.066;13.768;2023-07-24T07:29:05;3.53;;;2.95;;
19739;SDS011;10027;51.066;13.768;2023-07-24T07:31:32;4.40;;;3.10;;
19739;SDS011;10027;51.066;13.768;2023-07-24T07:33:59;3.65;;;3.35;;
19739;SDS011;10027;51.066;13.768;2023-07-24T07:36:27;4.07;;;3.20;;
19739;SDS011;10027;51.066;13.768;2023-07-24T07:38:55;3.35;;;3.00;;
19739;SDS011;10027;51.066;13.768;2023-07-24T07:41:22;3.58;;;2.92;;
19739;SDS011;10027;51.066;13.768;2023-07-24T07:43:49;3.78;;;3.00;;
19739;SDS011;10027;51.066;13.768;2023-07-24T07:46:16;3.40;;;3.10;;
19739;SDS011;10027;51.066;13.768;2023-07-24T07:48:43;3.17;;;2.88;;
19739;SDS011;10027;51.066;13.768;2023-07-24T07:51:12;3.95;;;3.05;;
19739;SDS011;10027;51.066;13.768;2023-07-24T07:53:40;3.65;;;2.88;;
19739;SDS011;10027;51.066;13.768;2023-07-24T07:56:07;3.40;;;3.00;;
19739;SDS011;10027;51.066;13.768;2023-07-24T07:58:34;3.90;;;2.83;;
19739;SDS011;10027;51.066;13.768;2023-07-24T08:01:05;3.78;;;2.85;;
19739;SDS011;10027;51.066;13.768;2023-07-24T08:03:32;5.18;;;3.08;;
19739;SDS011;10027;51.066;13.768;2023-07-24T08:06:00;2.95;;;2.72;;
19739;SDS011;10027;51.066;13.768;2023-07-24T08:08:27;3.75;;;3.30;;
19739;SDS011;10027;51.066;13.768;2023-07-24T08:10:55;3.25;;;2.95;;
19739;SDS011;10027;51.066;13.768;2023-07-24T08:13:22;3.00;;;2.80;;
19739;SDS011;10027;51.066;13.768;2023-07-24T08:15:49;3.30;;;3.00;;
19739;SDS011;10027;51.066;13.768;2023-07-24T08:18:16;3.25;;;2.95;;
19739;SDS011;10027;51.066;13.768;2023-07-24T08:20:43;3.80;;;3.00;;
19739;SDS011;10027;51.066;13.768;2023-07-24T08:23:11;3.20;;;2.90;;
19739;SDS011;10027;51.066;13.768;2023-07-24T08:25:38;3.40;;;3.10;;
19739;SDS011;10027;51.066;13.768;2023-07-24T08:28:05;3.38;;;3.08;;
19739;SDS011;10027;51.066;13.768;2023-07-24T08:30:33;3.00;;;2.80;;
19739;SDS011;10027;51.066;13.768;2023-07-24T08:33:01;3.15;;;2.95;;
19739;SDS011;10027;51.066;13.768;2023-07-24T08:35:28;3.47;;;3.17;;
19739;SDS011;10027;51.066;13.768;2023-07-24T08:37:55;3.85;;;3.40;;
19739;SDS011;10027;51.066;13.768;2023-07-24T08:40:22;5.40;;;3.30;;
19739;SDS011;10027;51.066;13.768;2023-07-24T08:42:50;3.35;;;3.05;;
19739;SDS011;10027;51.066;13.768;2023-07-24T08:45:17;3.30;;;3.00;;
19739;SDS011;10027;51.066;13.768;2023-07-24T08:47:44;3.42;;;3.13;;
19739;SDS011;10027;51.066;13.768;2023-07-24T08:50:12;3.63;;;3.33;;
19739;SDS011;10027;51.066;13.768;2023-07-24T08:52:41;3.45;;;3.15;;
19739;SDS011;10027;51.066;13.768;2023-07-24T08:55:10;3.35;;;3.05;;
19739;SDS011;10027;51.066;13.768;2023-07-24T08:57:38;3.35;;;3.05;;
19739;SDS011;10027;51.066;13.768;2023-07-24T09:00:05;3.35;;;3.05;;
19739;SDS011;10027;51.066;13.768;2023-07-24T09:02:33;3.72;;;2.92;;
19739;SDS011;10027;51.066;13.768;2023-07-24T09:05:00;3.67;;;3.38;;
19739;SDS011;10027;51.066;13.768;2023-07-24T09:07:29;3.90;;;3.55;;
19739;SDS011;10027;51.066;13.768;2023-07-24T09:09:56;3.40;;;3.10;;
19739;SDS011;10027;51.066;13.768;2023-07-24T09:12:23;3.60;;;3.25;;
19739;SDS011;10027;51.066;13.768;2023-07-24T09:15:00;4.32;;;3.60;;
19739;SDS011;10027;51.066;13.768;2023-07-24T09:17:28;4.18;;;3.53;;
19739;SDS011;10027;51.066;13.768;2023-07-24T09:19:56;3.53;;;3.22;;
19739;SDS011;10027;51.066;13.768;2023-07-24T09:22:24;4.13;;;3.50;;
19739;SDS011;10027;51.066;13.768;2023-07-24T09:24:53;3.70;;;3.28;;
19739;SDS011;10027;51.066;13.768;2023-07-24T09:27:24;4.68;;;3.88;;
19739;SDS011;10027;51.066;13.768;2023-07-24T09:29:52;4.78;;;3.38;;
19739;SDS011;10027;51.066;13.768;2023-07-24T09:32:23;3.55;;;3.25;;
19739;SDS011;10027;51.066;13.768;2023-07-24T09:34:51;3.38;;;2.97;;
19739;SDS011;10027;51.066;13.768;2023-07-24T09:39:50;3.47;;;3.10;;
19739;SDS011;10027;51.066;13.768;2023-07-24T09:42:26;4.72;;;3.45;;
19739;SDS011;10027;51.066;13.768;2023-07-24T09:44:54;3.40;;;3.10;;
19739;SDS011;10027;51.066;13.768;2023-07-24T09:47:21;3.95;;;3.45;;
19739;SDS011;10027;51.066;13.768;2023-07-24T09:50:08;4.63;;;3.55;;
19739;SDS011;10027;51.066;13.768;2023-07-24T09:52:36;4.80;;;3.85;;
19739;SDS011;10027;51.066;13.768;2023-07-24T09:57:31;5.57;;;4.07;;
19739;SDS011;10027;51.066;13.768;2023-07-24T09:59:58;4.78;;;3.92;;
19739;SDS011;10027;51.066;13.768;2023-07-24T10:02:26;4.55;;;3.70;;
19739;SDS011;10027;51.066;13.768;2023-07-24T10:04:55;6.55;;;4.22;;
19739;SDS011;10027;51.066;13.768;2023-07-24T10:07:23;5.72;;;3.80;;
19739;SDS011;10027;51.066;13.768;2023-07-24T10:09:50;5.75;;;4.07;;
19739;SDS011;10027;51.066;13.768;2023-07-24T10:12:18;7.03;;;4.28;;
19739;SDS011;10027;51.066;13.768;2023-07-24T10:14:46;5.32;;;3.85;;
19739;SDS011;10027;51.066;13.768;2023-07-24T10:17:13;6.10;;;4.20;;
19739;SDS011;10027;51.066;13.768;2023-07-24T10:19:43;5.18;;;3.67;;
19739;SDS011;10027;51.066;13.768;2023-07-24T10:22:20;4.78;;;3.55;;
19739;SDS011;10027;51.066;13.768;2023-07-24T10:24:51;4.30;;;3.90;;
19739;SDS011;10027;51.066;13.768;2023-07-24T10:27:22;4.57;;;3.58;;
19739;SDS011;10027;51.066;13.768;2023-07-24T10:29:59;4.43;;;3.58;;
19739;SDS011;10027;51.066;13.768;2023-07-24T10:32:35;4.93;;;3.50;;
19739;SDS011;10027;51.066;13.768;2023-07-24T10:35:11;5.38;;;3.60;;
19739;SDS011;10027;51.066;13.768;2023-07-24T10:37:39;6.45;;;3.70;;
19739;SDS011;10027;51.066;13.768;2023-07-24T10:40:06;4.45;;;3.30;;
19739;SDS011;10027;51.066;13.768;2023-07-24T10:42:33;4.10;;;3.47;;
19739;SDS011;10027;51.066;13.768;2023-07-24T10:45:04;5.18;;;3.75;;
19739;SDS011;10027;51.066;13.768;2023-07-24T10:47:32;5.70;;;3.93;;
19739;SDS011;10027;51.066;13.768;2023-07-24T10:49:59;6.15;;;4.07;;
19739;SDS011;10027;51.066;13.768;2023-07-24T10:52:31;5.05;;;3.92;;
19739;SDS011;10027;51.066;13.768;2023-07-24T10:55:05;5.88;;;3.67;;
19739;SDS011;10027;51.066;13.768;2023-07-24T10:57:32;4.83;;;4.00;;
19739;SDS011;10027;51.066;13.768;2023-07-24T11:00:00;5.13;;;4.20;;
19739;SDS011;10027;51.066;13.768;2023-07-24T11:02:29;5.83;;;3.90;;
19739;SDS011;10027;51.066;13.768;2023-07-24T11:04:58;11.43;;;4.80;;
19739;SDS011;10027;51.066;13.768;2023-07-24T11:07:31;5.70;;;3.90;;
19739;SDS011;10027;51.066;13.768;2023-07-24T11:09:58;5.10;;;4.10;;
19739;SDS011;10027;51.066;13.768;2023-07-24T11:12:25;6.27;;;4.40;;
19739;SDS011;10027;51.066;13.768;2023-07-24T11:14:56;5.60;;;4.33;;
19739;SDS011;10027;51.066;13.768;2023-07-24T11:17:35;6.07;;;4.30;;
19739;SDS011;10027;51.066;13.768;2023-07-24T11:20:13;7.03;;;4.50;;
19739;SDS011;10027;51.066;13.768;2023-07-24T11:22:42;7.20;;;4.50;;
19739;SDS011;10027;51.066;13.768;2023-07-24T11:25:10;5.10;;;4.10;;
19739;SDS011;10027;51.066;13.768;2023-07-24T11:27:38;5.80;;;4.23;;
19739;SDS011;10027;51.066;13.768;2023-07-24T11:30:07;6.17;;;4.50;;
19739;SDS011;10027;51.066;13.768;2023-07-24T11:32:34;7.80;;;4.17;;
19739;SDS011;10027;51.066;13.768;2023-07-24T11:35:02;5.83;;;4.43;;
19739;SDS011;10027;51.066;13.768;2023-07-24T11:37:29;5.50;;;4.20;;
19739;SDS011;10027;51.066;13.768;2023-07-24T11:40:00;6.23;;;4.23;;
19739;SDS011;10027;51.066;13.768;2023-07-24T11:42:40;5.37;;;4.30;;
19739;SDS011;10027;51.066;13.768;2023-07-24T11:45:09;7.70;;;4.30;;
19739;SDS011;10027;51.066;13.768;2023-07-24T11:47:43;6.57;;;4.20;;
19739;SDS011;10027;51.066;13.768;2023-07-24T11:50:11;5.60;;;4.30;;
19739;SDS011;10027;51.066;13.768;2023-07-24T11:52:38;5.50;;;4.27;;
19739;SDS011;10027;51.066;13.768;2023-07-24T11:55:07;6.47;;;4.30;;
19739;SDS011;10027;51.066;13.768;2023-07-24T11:57:34;6.80;;;4.37;;
19739;SDS011;10027;51.066;13.768;2023-07-24T12:00:02;4.77;;;3.77;;
19739;SDS011;10027;51.066;13.768;2023-07-24T12:02:31;6.47;;;4.33;;
19739;SDS011;10027;51.066;13.768;2023-07-24T12:04:59;5.23;;;4.17;;
19739;SDS011;10027;51.066;13.768;2023-07-24T12:07:30;8.00;;;4.30;;
19739;SDS011;10027;51.066;13.768;2023-07-24T12:09:58;5.40;;;4.00;;
19739;SDS011;10027;51.066;13.768;2023-07-24T12:12:36;7.33;;;4.27;;
19739;SDS011;10027;51.066;13.768;2023-07-24T12:15:03;7.27;;;4.03;;
19739;SDS011;10027;51.066;13.768;2023-07-24T12:17:30;5.83;;;4.27;;
19739;SDS011;10027;51.066;13.768;2023-07-24T12:19:57;6.10;;;4.47;;
19739;SDS011;10027;51.066;13.768;2023-07-24T12:22:25;5.37;;;4.13;;
19739;SDS011;10027;51.066;13.768;2023-07-24T12:24:56;7.77;;;4.50;;
19739;SDS011;10027;51.066;13.768;2023-07-24T12:27:23;7.37;;;3.90;;
19739;SDS011;10027;51.066;13.768;2023-07-24T12:29:51;5.20;;;4.17;;
19739;SDS011;10027;51.066;13.768;2023-07-24T12:32:18;6.73;;;4.50;;
19739;SDS011;10027;51.066;13.768;2023-07-24T12:34:46;5.70;;;4.37;;
19739;SDS011;10027;51.066;13.768;2023-07-24T12:37:13;6.60;;;4.60;;
19739;SDS011;10027;51.066;13.768;2023-07-24T12:39:41;6.73;;;4.67;;
19739;SDS011;10027;51.066;13.768;2023-07-24T12:42:08;7.97;;;4.87;;
19739;SDS011;10027;51.066;13.768;2023-07-24T12:44:35;6.07;;;4.80;;
19739;SDS011;10027;51.066;13.768;2023-07-24T12:47:03;7.17;;;4.70;;
19739;SDS011;10027;51.066;13.768;2023-07-24T12:49:30;7.40;;;5.40;;
19739;SDS011;10027;51.066;13.768;2023-07-24T12:51:57;8.20;;;5.03;;
19739;SDS011;10027;51.066;13.768;2023-07-24T12:54:25;8.43;;;4.57;;
19739;SDS011;10027;51.066;13.768;2023-07-24T12:57:12;9.23;;;5.00;;
19739;SDS011;10027;51.066;13.768;2023-07-24T12:59:39;8.00;;;4.67;;
19739;SDS011;10027;51.066;13.768;2023-07-24T13:02:07;7.33;;;4.60;;
19739;SDS011;10027;51.066;13.768;2023-07-24T13:04:34;8.03;;;4.97;;
19739;SDS011;10027;51.066;13.768;2023-07-24T13:07:02;8.80;;;4.80;;
19739;SDS011;10027;51.066;13.768;2023-07-24T13:09:30;7.47;;;4.60;;
19739;SDS011;10027;51.066;13.768;2023-07-24T13:11:57;8.73;;;4.67;;
19739;SDS011;10027;51.066;13.768;2023-07-24T13:14:25;6.70;;;4.60;;
19739;SDS011;10027;51.066;13.768;2023-07-24T13:16:52;7.67;;;4.80;;
19739;SDS011;10027;51.066;13.768;2023-07-24T13:19:19;7.63;;;4.83;;
19739;SDS011;10027;51.066;13.768;2023-07-24T13:21:47;6.43;;;4.60;;
19739;SDS011;10027;51.066;13.768;2023-07-24T13:24:14;6.33;;;4.60;;
19739;SDS011;10027;51.066;13.768;2023-07-24T13:26:41;7.57;;;4.50;;
19739;SDS011;10027;51.066;13.768;2023-07-24T13:29:09;9.20;;;4.60;;
19739;SDS011;10027;51.066;13.768;2023-07-24T13:31:36;16.63;;;4.60;;
19739;SDS011;10027;51.066;13.768;2023-07-24T13:34:03;7.17;;;4.20;;
19739;SDS011;10027;51.066;13.768;2023-07-24T13:36:30;8.30;;;4.60;;
19739;SDS011;10027;51.066;13.768;2023-07-24T13:38:58;7.43;;;4.70;;
19739;SDS011;10027;51.066;13.768;2023-07-24T13:41:25;6.87;;;4.67;;
19739;SDS011;10027;51.066;13.768;2023-07-24T13:43:52;6.00;;;4.27;;
19739;SDS011;10027;51.066;13.768;2023-07-24T13:46:19;6.00;;;4.10;;
19739;SDS011;10027;51.066;13.768;2023-07-24T13:48:47;7.40;;;4.27;;
19739;SDS011;10027;51.066;13.768;2023-07-24T13:51:14;6.13;;;4.23;;
19739;SDS011;10027;51.066;13.768;2023-07-24T13:53:41;5.80;;;4.50;;
19739;SDS011;10027;51.066;13.768;2023-07-24T13:56:08;5.23;;;3.83;;
19739;SDS011;10027;51.066;13.768;2023-07-24T13:58:35;5.80;;;4.07;;
19739;SDS011;10027;51.066;13.768;2023-07-24T14:01:02;6.07;;;3.87;;
19739;SDS011;10027;51.066;13.768;2023-07-24T14:03:30;6.43;;;4.53;;
19739;SDS011;10027;51.066;13.768;2023-07-24T14:05:57;4.97;;;3.63;;
19739;SDS011;10027;51.066;13.768;2023-07-24T14:08:24;4.33;;;3.17;;
19739;SDS011;10027;51.066;13.768;2023-07-24T14:10:51;4.07;;;3.07;;
19739;SDS011;10027;51.066;13.768;2023-07-24T14:13:18;3.73;;;2.90;;
19739;SDS011;10027;51.066;13.768;2023-07-24T14:15:48;4.70;;;3.00;;
19739;SDS011;10027;51.066;13.768;2023-07-24T14:18:15;5.23;;;2.90;;
19739;SDS011;10027;51.066;13.768;2023-07-24T14:20:43;3.77;;;2.60;;
19739;SDS011;10027;51.066;13.768;2023-07-24T14:23:10;2.83;;;2.53;;
19739;SDS011;10027;51.066;13.768;2023-07-24T14:25:37;3.80;;;2.60;;
19739;SDS011;10027;51.066;13.768;2023-07-24T14:28:04;3.50;;;2.53;;
19739;SDS011;10027;51.066;13.768;2023-07-24T14:30:31;3.97;;;2.60;;
19739;SDS011;10027;51.066;13.768;2023-07-24T14:32:59;3.93;;;2.90;;
19739;SDS011;10027;51.066;13.768;2023-07-24T14:35:26;3.67;;;2.77;;
19739;SDS011;10027;51.066;13.768;2023-07-24T14:37:53;3.60;;;2.90;;
19739;SDS011;10027;51.066;13.768;2023-07-24T14:40:20;4.27;;;3.00;;
19739;SDS011;10027;51.066;13.768;2023-07-24T14:42:47;3.23;;;2.73;;
19739;SDS011;10027;51.066;13.768;2023-07-24T14:45:14;4.20;;;3.23;;
19739;SDS011;10027;51.066;13.768;2023-07-24T14:47:41;4.47;;;3.30;;